Schedule Details


Flight Number: CTN441
Departure: Schwechat (LOWW) at 10:10
Arrival: Franjo Tudman (LDZA) at 11:05
Route: SASAL?DCT?SUNIS?DCT?PETOV

Weather Information
LOWW 190950Z 20016KT CAVOK 09/M01 Q1020 NOSIG
LDZA 191000Z 12004KT 070V170 CAVOK 09/02 Q1021 NOSIG
Schedule Frequency

Route Map